sensor_id;sensor_type;location;lat;lon;timestamp;pressure;altitude;pressure_sealevel;temperature;humidity
46174;BME280;31897;52.420;13.498;2023-07-31T00:02:44;100800;;;15.98988;33.13848
46174;BME280;31897;52.420;13.498;2023-07-31T00:05:45;100800;;;15.92462;33.19341
46174;BME280;31897;52.420;13.498;2023-07-31T00:08:46;100700;;;15.88262;33.34916
46174;BME280;31897;52.420;13.498;2023-07-31T00:11:47;100700;;;15.89167;33.37282
46174;BME280;31897;52.420;13.498;2023-07-31T00:14:47;100800;;;15.88521;33.40274
46174;BME280;31897;52.420;13.498;2023-07-31T00:17:48;100800;;;15.87907;33.52799
46174;BME280;31897;52.420;13.498;2023-07-31T00:20:49;100700;;;15.89328;33.59922
46174;BME280;31897;52.420;13.498;2023-07-31T00:23:50;100700;;;15.87261;33.71281
46174;BME280;31897;52.420;13.498;2023-07-31T00:26:51;100700;;;15.91751;33.73582
46174;BME280;31897;52.420;13.498;2023-07-31T00:29:52;100700;;;15.93011;33.78325
46174;BME280;31897;52.420;13.498;2023-07-31T00:32:52;100700;;;15.90362;33.95057
46174;BME280;31897;52.420;13.498;2023-07-31T00:35:53;100700;;;15.91687;33.94437
46174;BME280;31897;52.420;13.498;2023-07-31T00:38:54;100700;;;15.91848;34.0635
46174;BME280;31897;52.420;13.498;2023-07-31T00:41:55;100700;;;15.97243;34.11617
46174;BME280;31897;52.420;13.498;2023-07-31T00:44:56;100700;;;16.0112;34.08569
46174;BME280;31897;52.420;13.498;2023-07-31T00:47:56;100700;;;15.96145;34.14616
46174;BME280;31897;52.420;13.498;2023-07-31T00:50:57;100700;;;15.93431;34.21813
46174;BME280;31897;52.420;13.498;2023-07-31T00:53:58;100700;;;15.93593;34.29556
46174;BME280;31897;52.420;13.498;2023-07-31T00:56:59;100700;;;15.92947;34.21226
46174;BME280;31897;52.420;13.498;2023-07-31T01:00:00;100700;;;15.89102;34.29633
46174;BME280;31897;52.420;13.498;2023-07-31T01:03:01;100700;;;15.87584;34.30851
46174;BME280;31897;52.420;13.498;2023-07-31T01:06:05;100700;;;15.83158;34.33309
46174;BME280;31897;52.420;13.498;2023-07-31T01:09:10;100700;;;15.77795;34.44121
46174;BME280;31897;52.420;13.498;2023-07-31T01:12:17;100700;;;15.72497;34.5731
46174;BME280;31897;52.420;13.498;2023-07-31T01:15:18;100700;;;15.73821;34.75152
46174;BME280;31897;52.420;13.498;2023-07-31T01:18:18;100700;;;15.74952;34.75134
46174;BME280;31897;52.420;13.498;2023-07-31T01:21:23;100700;;;15.79378;34.79826
46174;BME280;31897;52.420;13.498;2023-07-31T01:24:30;100700;;;15.85322;34.85091
46174;BME280;31897;52.420;13.498;2023-07-31T01:27:38;100700;;;15.90524;34.74286
46174;BME280;31897;52.420;13.498;2023-07-31T01:30:44;100700;;;15.89457;34.88003
46174;BME280;31897;52.420;13.498;2023-07-31T01:33:48;100700;;;15.87551;34.95181
46174;BME280;31897;52.420;13.498;2023-07-31T01:36:50;100700;;;15.89038;34.98135
46174;BME280;31897;52.420;13.498;2023-07-31T01:39:51;100700;;;15.89554;35.02892
46174;BME280;31897;52.420;13.498;2023-07-31T01:42:52;100700;;;15.88908;35.08858
46174;BME280;31897;52.420;13.498;2023-07-31T01:45:53;100700;;;15.86292;35.29146
46174;BME280;31897;52.420;13.498;2023-07-31T01:48:54;100700;;;15.85387;35.43451
46174;BME280;31897;52.420;13.498;2023-07-31T01:51:55;100700;;;15.8823;35.37455
46174;BME280;31897;52.420;13.498;2023-07-31T01:54:55;100700;;;15.88521;35.41619
46174;BME280;31897;52.420;13.498;2023-07-31T01:57:56;100700;;;15.84159;35.4466
46174;BME280;31897;52.420;13.498;2023-07-31T02:00:57;100700;;;15.85161;35.54769
46174;BME280;31897;52.420;13.498;2023-07-31T02:03:58;100700;;;15.86582;35.49389
46174;BME280;31897;52.420;13.498;2023-07-31T02:06:59;100700;;;15.85645;35.54166
46174;BME280;31897;52.420;13.498;2023-07-31T02:09:59;100700;;;15.87778;35.54731
46174;BME280;31897;52.420;13.498;2023-07-31T02:13:00;100700;;;15.88682;35.58291
46174;BME280;31897;52.420;13.498;2023-07-31T02:16:01;100600;;;15.8907;35.66027
46174;BME280;31897;52.420;13.498;2023-07-31T02:19:02;100600;;;15.88585;35.70797
46174;BME280;31897;52.420;13.498;2023-07-31T02:22:03;100600;;;15.87778;35.72
46174;BME280;31897;52.420;13.498;2023-07-31T02:25:04;100600;;;15.8823;35.73184
46174;BME280;31897;52.420;13.498;2023-07-31T02:28:05;100600;;;15.85839;35.77981
46174;BME280;31897;52.420;13.498;2023-07-31T02:31:06;100600;;;15.84385;35.78001
46174;BME280;31897;52.420;13.498;2023-07-31T02:34:06;100600;;;15.8151;35.79232
46174;BME280;31897;52.420;13.498;2023-07-31T02:37:07;100600;;;15.8319;35.73255
46174;BME280;31897;52.420;13.498;2023-07-31T02:40:08;100600;;;15.84224;35.72049
46174;BME280;31897;52.420;13.498;2023-07-31T02:43:09;100600;;;15.81123;35.69116
46174;BME280;31897;52.420;13.498;2023-07-31T02:46:10;100600;;;15.78603;35.70342
46174;BME280;31897;52.420;13.498;2023-07-31T02:49:11;100600;;;15.78506;35.70939
46174;BME280;31897;52.420;13.498;2023-07-31T02:52:12;100600;;;15.78247;35.73919
46174;BME280;31897;52.420;13.498;2023-07-31T02:55:13;100600;;;15.74823;35.76943
46174;BME280;31897;52.420;13.498;2023-07-31T02:58:14;100600;;;15.70462;35.84741
46174;BME280;31897;52.420;13.498;2023-07-31T03:01:15;100600;;;15.69492;36.0261
46174;BME280;31897;52.420;13.498;2023-07-31T03:04:16;100600;;;15.69557;36.01419
46174;BME280;31897;52.420;13.498;2023-07-31T03:07:16;100600;;;15.59865;36.09283
46174;BME280;31897;52.420;13.498;2023-07-31T03:10:17;100600;;;15.55019;36.14106
46174;BME280;31897;52.420;13.498;2023-07-31T03:13:18;100600;;;15.46588;36.25517
46174;BME280;31897;52.420;13.498;2023-07-31T03:16:18;100600;;;15.4032;36.38086
46174;BME280;31897;52.420;13.498;2023-07-31T03:19:19;100600;;;15.39383;36.63074
46174;BME280;31897;52.420;13.498;2023-07-31T03:22:20;100600;;;15.36347;36.57758
46174;BME280;31897;52.420;13.498;2023-07-31T03:25:21;100600;;;15.34861;36.76208
46174;BME280;31897;52.420;13.498;2023-07-31T03:28:22;100600;;;15.34764;36.8275
46174;BME280;31897;52.420;13.498;2023-07-31T03:31:22;100600;;;15.33504;36.98222
46174;BME280;31897;52.420;13.498;2023-07-31T03:34:23;100600;;;15.35571;37.01172
46174;BME280;31897;52.420;13.498;2023-07-31T03:37:24;100600;;;15.28852;37.05406
46174;BME280;31897;52.420;13.498;2023-07-31T03:40:25;100600;;;15.26493;37.08998
46174;BME280;31897;52.420;13.498;2023-07-31T03:43:26;100600;;;15.2588;37.15543
46174;BME280;31897;52.420;13.498;2023-07-31T03:46:26;100600;;;15.24846;37.25064
46174;BME280;31897;52.420;13.498;2023-07-31T03:49:27;100600;;;15.19774;37.16796
46174;BME280;31897;52.420;13.498;2023-07-31T03:52:28;100600;;;15.20969;37.3283
46174;BME280;31897;52.420;13.498;2023-07-31T03:55:29;100600;;;15.28755;37.35723
46174;BME280;31897;52.420;13.498;2023-07-31T03:58:29;100600;;;15.31791;37.30936
46174;BME280;31897;52.420;13.498;2023-07-31T04:01:30;100600;;;15.32599;37.35089
46174;BME280;31897;52.420;13.498;2023-07-31T04:04:31;100600;;;15.2953;37.32743
46174;BME280;31897;52.420;13.498;2023-07-31T04:07:32;100600;;;15.29401;37.45821
46174;BME280;31897;52.420;13.498;2023-07-31T04:10:32;100600;;;15.31759;37.39259
46174;BME280;31897;52.420;13.498;2023-07-31T04:13:33;100600;;;15.31791;37.41042
46174;BME280;31897;52.420;13.498;2023-07-31T04:16:34;100600;;;15.36347;37.40401
46174;BME280;31897;52.420;13.498;2023-07-31T04:19:35;100600;;;15.38285;37.35031
46174;BME280;31897;52.420;13.498;2023-07-31T04:22:36;100600;;;15.35894;37.38622
46174;BME280;31897;52.420;13.498;2023-07-31T04:25:36;100600;;;15.38608;37.48702
46174;BME280;31897;52.420;13.498;2023-07-31T04:28:37;100600;;;15.36573;37.3921
46174;BME280;31897;52.420;13.498;2023-07-31T04:31:38;100600;;;15.35991;37.53483
46174;BME280;31897;52.420;13.498;2023-07-31T04:34:39;100600;;;15.42355;37.63528
46174;BME280;31897;52.420;13.498;2023-07-31T04:37:39;100600;;;15.43422;37.62923
46174;BME280;31897;52.420;13.498;2023-07-31T04:40:40;100600;;;15.44455;37.56968
46174;BME280;31897;52.420;13.498;2023-07-31T04:43:41;100600;;;15.43809;37.6827
46174;BME280;31897;52.420;13.498;2023-07-31T04:46:42;100600;;;15.42549;37.78983
46174;BME280;31897;52.420;13.498;2023-07-31T04:49:42;100600;;;15.42905;37.86708
46174;BME280;31897;52.420;13.498;2023-07-31T04:52:43;100600;;;15.42614;37.86711
46174;BME280;31897;52.420;13.498;2023-07-31T04:55:44;100600;;;15.50497;37.81288
46174;BME280;31897;52.420;13.498;2023-07-31T04:58:45;100600;;;15.51918;37.79491
46174;BME280;31897;52.420;13.498;2023-07-31T05:01:45;100600;;;15.47201;37.724
46174;BME280;31897;52.420;13.498;2023-07-31T05:04:46;100600;;;15.42905;37.71251
46174;BME280;31897;52.420;13.498;2023-07-31T05:07:47;100600;;;15.37413;37.84381
46174;BME280;31897;52.420;13.498;2023-07-31T05:10:48;100600;;;15.36799;37.85575
46174;BME280;31897;52.420;13.498;2023-07-31T05:13:48;100600;;;15.37251;37.96865
46174;BME280;31897;52.420;13.498;2023-07-31T05:16:49;100600;;;15.34505;38.04021
46174;BME280;31897;52.420;13.498;2023-07-31T05:19:50;100600;;;15.357;38.02228
46174;BME280;31897;52.420;13.498;2023-07-31T05:22:51;100600;;;15.42969;38.02164
46174;BME280;31897;52.420;13.498;2023-07-31T05:25:52;100600;;;15.42452;38.03952
46174;BME280;31897;52.420;13.498;2023-07-31T05:28:52;100600;;;15.42226;38.00387
46174;BME280;31897;52.420;13.498;2023-07-31T05:31:54;100600;;;15.39997;38.04568
46174;BME280;31897;52.420;13.498;2023-07-31T05:34:55;100600;;;15.36799;38.09351
46174;BME280;31897;52.420;13.498;2023-07-31T05:37:56;100600;;;15.27527;38.23691
46174;BME280;31897;52.420;13.498;2023-07-31T05:40:56;100600;;;15.27559;38.28445
46174;BME280;31897;52.420;13.498;2023-07-31T05:43:57;100500;;;15.24652;38.20744
46174;BME280;31897;52.420;13.498;2023-07-31T05:46:58;100500;;;15.19515;38.27916
46174;BME280;31897;52.420;13.498;2023-07-31T05:49:59;100600;;;15.16802;38.39819
46174;BME280;31897;52.420;13.498;2023-07-31T05:52:59;100500;;;15.14572;38.36866
46174;BME280;31897;52.420;13.498;2023-07-31T05:56:00;100500;;;15.20872;38.45728
46174;BME280;31897;52.420;13.498;2023-07-31T05:59:01;100500;;;15.30887;38.43868
46174;BME280;31897;52.420;13.498;2023-07-31T06:02:02;100500;;;15.35765;38.37294
46174;BME280;31897;52.420;13.498;2023-07-31T06:05:03;100500;;;15.33374;38.32558
46174;BME280;31897;52.420;13.498;2023-07-31T06:08:04;100500;;;15.28044;38.38542
46174;BME280;31897;52.420;13.498;2023-07-31T06:11:04;100500;;;15.28464;38.49235
46174;BME280;31897;52.420;13.498;2023-07-31T06:14:05;100500;;;15.26041;38.50441
46174;BME280;31897;52.420;13.498;2023-07-31T06:17:06;100500;;;15.25653;38.64704
46174;BME280;31897;52.420;13.498;2023-07-31T06:20:07;100500;;;15.30015;38.61701
46174;BME280;31897;52.420;13.498;2023-07-31T06:23:08;100500;;;15.29498;38.71212
46174;BME280;31897;52.420;13.498;2023-07-31T06:26:09;100500;;;15.32308;38.71192
46174;BME280;31897;52.420;13.498;2023-07-31T06:29:10;100500;;;15.34764;38.81276
46174;BME280;31897;52.420;13.498;2023-07-31T06:32:11;100500;;;15.31501;38.75357
46174;BME280;31897;52.420;13.498;2023-07-31T06:35:12;100500;;;15.28787;38.831
46174;BME280;31897;52.420;13.498;2023-07-31T06:38:13;100500;;;15.25653;38.97973
46174;BME280;31897;52.420;13.498;2023-07-31T06:41:14;100500;;;15.23134;38.9799
46174;BME280;31897;52.420;13.498;2023-07-31T06:44:15;100500;;;15.26849;39.06282
46174;BME280;31897;52.420;13.498;2023-07-31T06:47:16;100500;;;15.34344;38.97322
46174;BME280;31897;52.420;13.498;2023-07-31T06:50:16;100500;;;15.38382;39.0502
46174;BME280;31897;52.420;13.498;2023-07-31T06:53:17;100500;;;15.36088;39.02064
46174;BME280;31897;52.420;13.498;2023-07-31T06:56:18;100500;;;15.31307;38.96154
46174;BME280;31897;52.420;13.498;2023-07-31T06:59:19;100500;;;15.34408;39.08017
46174;BME280;31897;52.420;13.498;2023-07-31T07:02:19;100500;;;15.28173;38.97957
46174;BME280;31897;52.420;13.498;2023-07-31T07:05:20;100500;;;15.24329;39.21743
46174;BME280;31897;52.420;13.498;2023-07-31T07:08:21;100500;;;15.26009;39.12822
46174;BME280;31897;52.420;13.498;2023-07-31T07:11:22;100500;;;15.2281;39.17594
46174;BME280;31897;52.420;13.498;2023-07-31T07:14:22;100500;;;15.2;39.21175
46174;BME280;31897;52.420;13.498;2023-07-31T07:17:23;100500;;;15.21389;39.33046
46174;BME280;31897;52.420;13.498;2023-07-31T07:20:24;100500;;;15.32373;39.37141
46174;BME280;31897;52.420;13.498;2023-07-31T07:23:25;100500;;;15.40256;39.26401
46174;BME280;31897;52.420;13.498;2023-07-31T07:26:25;100500;;;15.47492;39.20414
46174;BME280;31897;52.420;13.498;2023-07-31T07:29:26;100500;;;15.50012;39.01379
46174;BME280;31897;52.420;13.498;2023-07-31T07:32:27;100500;;;15.57959;39.03705
46174;BME280;31897;52.420;13.498;2023-07-31T07:35:28;100500;;;15.61868;39.05463
46174;BME280;31897;52.420;13.498;2023-07-31T07:38:28;100500;;;15.65066;39.01875
46174;BME280;31897;52.420;13.498;2023-07-31T07:41:29;100500;;;15.71011;39.05403
46174;BME280;31897;52.420;13.498;2023-07-31T07:44:30;100500;;;15.70817;39.03621
46174;BME280;31897;52.420;13.498;2023-07-31T07:47:31;100500;;;15.66876;38.98295
46174;BME280;31897;52.420;13.498;2023-07-31T07:50:32;100500;;;15.71302;39.05401
46174;BME280;31897;52.420;13.498;2023-07-31T07:53:32;100500;;;15.80929;39.01769
46174;BME280;31897;52.420;13.498;2023-07-31T07:56:33;100500;;;15.82996;39.01161
46174;BME280;31897;52.420;13.498;2023-07-31T07:59:34;100500;;;15.90524;38.86237
46174;BME280;31897;52.420;13.498;2023-07-31T08:02:40;100500;;;15.90653;38.82666
46174;BME280;31897;52.420;13.498;2023-07-31T08:05:40;100500;;;15.99828;38.90337
46174;BME280;31897;52.420;13.498;2023-07-31T08:08:41;100500;;;15.96952;38.96307
46174;BME280;31897;52.420;13.498;2023-07-31T08:11:42;100500;;;15.90491;39.17173
46174;BME280;31897;52.420;13.498;2023-07-31T08:14:43;100500;;;15.90653;39.16577
46174;BME280;31897;52.420;13.498;2023-07-31T08:17:44;100500;;;15.88133;39.0886
46174;BME280;31897;52.420;13.498;2023-07-31T08:20:44;100500;;;15.87842;39.35035
46174;BME280;31897;52.420;13.498;2023-07-31T08:23:45;100500;;;15.94433;39.42135
46174;BME280;31897;52.420;13.498;2023-07-31T08:26:46;100500;;;16.05481;39.46235
46174;BME280;31897;52.420;13.498;2023-07-31T08:29:47;100500;;;16.13622;39.44998
46174;BME280;31897;52.420;13.498;2023-07-31T08:32:49;100500;;;16.21085;39.12809
46174;BME280;31897;52.420;13.498;2023-07-31T08:35:49;100500;;;16.18759;39.25921
46174;BME280;31897;52.420;13.498;2023-07-31T08:38:50;100500;;;16.30551;39.33586
46174;BME280;31897;52.420;13.498;2023-07-31T08:41:51;100500;;;16.30486;39.13343
46174;BME280;31897;52.420;13.498;2023-07-31T08:44:51;100500;;;16.28451;39.30622
46174;BME280;31897;52.420;13.498;2023-07-31T08:47:53;100500;;;16.37981;39.49618
46174;BME280;31897;52.420;13.498;2023-07-31T08:50:53;100500;;;16.39887;39.38293
46174;BME280;31897;52.420;13.498;2023-07-31T08:53:54;100500;;;16.47705;39.08463
46174;BME280;31897;52.420;13.498;2023-07-31T08:56:55;100500;;;16.49127;39.25132
46174;BME280;31897;52.420;13.498;2023-07-31T08:59:57;100500;;;16.52454;39.32855
46174;BME280;31897;52.420;13.498;2023-07-31T09:02:59;100500;;;16.51388;39.03077
46174;BME280;31897;52.420;13.498;2023-07-31T09:06:00;100500;;;16.48772;39.22752
46174;BME280;31897;52.420;13.498;2023-07-31T09:09:02;100500;;;16.46413;39.16215
46174;BME280;31897;52.420;13.498;2023-07-31T09:12:03;100500;;;16.42698;39.00159
46174;BME280;31897;52.420;13.498;2023-07-31T09:15:05;100500;;;16.50871;39.10229
46174;BME280;31897;52.420;13.498;2023-07-31T09:18:06;100500;;;16.55427;38.96495
46174;BME280;31897;52.420;13.498;2023-07-31T09:21:07;100500;;;16.59529;39.14937
46174;BME280;31897;52.420;13.498;2023-07-31T09:24:08;100500;;;16.68737;39.03552
46174;BME280;31897;52.420;13.498;2023-07-31T09:27:09;100500;;;16.68414;38.61836
46174;BME280;31897;52.420;13.498;2023-07-31T09:30:10;100500;;;16.65377;38.5888
46174;BME280;31897;52.420;13.498;2023-07-31T09:33:11;100500;;;16.64602;38.4339
46174;BME280;31897;52.420;13.498;2023-07-31T09:36:12;100500;;;16.57236;38.44643
46174;BME280;31897;52.420;13.498;2023-07-31T09:39:14;100500;;;16.63406;38.42804
46174;BME280;31897;52.420;13.498;2023-07-31T09:42:23;100500;;;16.63212;38.2433
46174;BME280;31897;52.420;13.498;2023-07-31T09:45:24;100500;;;16.67348;38.18333
46174;BME280;31897;52.420;13.498;2023-07-31T09:48:25;100500;;;16.72484;38.20672
46174;BME280;31897;52.420;13.498;2023-07-31T09:51:26;100500;;;16.69286;37.93874
46174;BME280;31897;52.420;13.498;2023-07-31T09:54:27;100500;;;16.62082;38.09439
46174;BME280;31897;52.420;13.498;2023-07-31T09:57:28;100500;;;16.63051;37.85588
46174;BME280;31897;52.420;13.498;2023-07-31T10:00:29;100500;;;16.74293;37.93231
46174;BME280;31897;52.420;13.498;2023-07-31T10:03:30;100500;;;16.81821;37.91966
46174;BME280;31897;52.420;13.498;2023-07-31T10:06:32;100500;;;16.84567;37.93134
46174;BME280;31897;52.420;13.498;2023-07-31T10:09:34;100500;;;16.86247;37.91329
46174;BME280;31897;52.420;13.498;2023-07-31T10:12:36;100500;;;16.88411;37.91308
46174;BME280;31897;52.420;13.498;2023-07-31T10:15:38;100500;;;16.86214;38.00274
46174;BME280;31897;52.420;13.498;2023-07-31T10:18:38;100500;;;16.7607;38.17063
46174;BME280;31897;52.420;13.498;2023-07-31T10:21:40;100500;;;16.7229;38.39153
46174;BME280;31897;52.420;13.498;2023-07-31T10:24:43;100500;;;16.77589;38.46263
46174;BME280;31897;52.420;13.498;2023-07-31T10:27:48;100500;;;16.82952;38.43833
46174;BME280;31897;52.420;13.498;2023-07-31T10:30:49;100500;;;16.91642;38.44357
46174;BME280;31897;52.420;13.498;2023-07-31T10:33:51;100500;;;17.06341;38.34688
46174;BME280;31897;52.420;13.498;2023-07-31T10:37:07;100500;;;17.11769;38.48363
46174;BME280;31897;52.420;13.498;2023-07-31T10:40:24;100500;;;17.1571;38.32817
46174;BME280;31897;52.420;13.498;2023-07-31T10:43:25;100400;;;17.28213;38.30917
46174;BME280;31897;52.420;13.498;2023-07-31T10:46:27;100400;;;17.45917;38.11652
46174;BME280;31897;52.420;13.498;2023-07-31T10:49:28;100400;;;17.758;37.92848
46174;BME280;31897;52.420;13.498;2023-07-31T10:52:29;100400;;;18.05587;37.53684
46174;BME280;31897;52.420;13.498;2023-07-31T10:55:39;100400;;;18.26199;37.6363
46174;BME280;31897;52.420;13.498;2023-07-31T10:58:40;100400;;;18.76953;37.21153
46174;BME280;31897;52.420;13.498;2023-07-31T11:01:52;100400;;;19.07871;36.90812
46174;BME280;31897;52.420;13.498;2023-07-31T11:05:08;100400;;;19.20923;36.67259
46174;BME280;31897;52.420;13.498;2023-07-31T11:08:12;100400;;;19.30066;35.84953
46174;BME280;31897;52.420;13.498;2023-07-31T11:11:13;100400;;;19.15075;35.43192
46174;BME280;31897;52.420;13.498;2023-07-31T11:14:14;100400;;;19.21601;35.57486
46174;BME280;31897;52.420;13.498;2023-07-31T11:17:15;100400;;;19.2144;34.78292
46174;BME280;31897;52.420;13.498;2023-07-31T11:20:16;100400;;;19.17078;34.53168
46174;BME280;31897;52.420;13.498;2023-07-31T11:23:17;100400;;;19.21278;34.3449
46174;BME280;31897;52.420;13.498;2023-07-31T11:26:18;100400;;;19.22474;34.08061
46174;BME280;31897;52.420;13.498;2023-07-31T11:29:19;100400;;;19.20568;33.5648
46174;BME280;31897;52.420;13.498;2023-07-31T11:32:19;100400;;;19.26512;32.7951
46174;BME280;31897;52.420;13.498;2023-07-31T11:35:20;100400;;;19.36463;32.42056
46174;BME280;31897;52.420;13.498;2023-07-31T11:38:21;100400;;;19.33394;31.69444
46174;BME280;31897;52.420;13.498;2023-07-31T11:41:22;100400;;;19.45218;31.54134
46174;BME280;31897;52.420;13.498;2023-07-31T11:44:22;100400;;;19.62696;31.4168
46174;BME280;31897;52.420;13.498;2023-07-31T11:47:23;100400;;;19.63342;31.13407
46174;BME280;31897;52.420;13.498;2023-07-31T11:50:26;100400;;;19.68318;31.07266
46174;BME280;31897;52.420;13.498;2023-07-31T11:53:28;100400;;;19.72356;31.04156
46174;BME280;31897;52.420;13.498;2023-07-31T11:56:30;100400;;;19.74392;30.81851
46174;BME280;31897;52.420;13.498;2023-07-31T11:59:31;100400;;;19.76201;30.92629
46174;BME280;31897;52.420;13.498;2023-07-31T12:02:32;100400;;;19.73552;30.93901
46174;BME280;31897;52.420;13.498;2023-07-31T12:05:33;100400;;;19.72098;30.83715
46174;BME280;31897;52.420;13.498;2023-07-31T12:08:34;100400;;;19.70644;30.7353
46174;BME280;31897;52.420;13.498;2023-07-31T12:11:42;100400;;;19.69029;30.81992
46174;BME280;31897;52.420;13.498;2023-07-31T12:14:43;100400;;;19.66638;30.72433
46174;BME280;31897;52.420;13.498;2023-07-31T12:17:44;100400;;;19.66444;30.70033
46174;BME280;31897;52.420;13.498;2023-07-31T12:20:48;100400;;;19.69578;30.81976
46174;BME280;31897;52.420;13.498;2023-07-31T12:23:49;100400;;;19.76072;30.83611
46174;BME280;31897;52.420;13.498;2023-07-31T12:26:52;100400;;;19.8221;30.90667
46174;BME280;31897;52.420;13.498;2023-07-31T12:29:52;100400;;;19.72227;30.80103
46174;BME280;31897;52.420;13.498;2023-07-31T12:32:53;100400;;;19.59272;30.8285
46174;BME280;31897;52.420;13.498;2023-07-31T12:35:54;100400;;;19.5701;30.94332
46174;BME280;31897;52.420;13.498;2023-07-31T12:38:55;100400;;;19.44895;30.96449
46174;BME280;31897;52.420;13.498;2023-07-31T12:41:55;100400;;;19.38854;31.1884
46174;BME280;31897;52.420;13.498;2023-07-31T12:44:56;100400;;;19.43893;31.06692
46174;BME280;31897;52.420;13.498;2023-07-31T12:47:57;100300;;;19.44346;30.8865
46174;BME280;31897;52.420;13.498;2023-07-31T12:50:58;100300;;;19.57818;30.88299
46174;BME280;31897;52.420;13.498;2023-07-31T12:53:59;100300;;;19.74488;30.75231
46174;BME280;31897;52.420;13.498;2023-07-31T12:56:59;100300;;;19.94519;30.42808
46174;BME280;31897;52.420;13.498;2023-07-31T13:00:00;100300;;;20.6356;29.87875
46174;BME280;31897;52.420;13.498;2023-07-31T13:03:01;100300;;;20.69731;29.67199
46174;BME280;31897;52.420;13.498;2023-07-31T13:06:03;100300;;;21.1115;29.41243
46174;BME280;31897;52.420;13.498;2023-07-31T13:09:03;100300;;;21.0178;29.53591
46174;BME280;31897;52.420;13.498;2023-07-31T13:12:04;100300;;;20.88599;29.37092
46174;BME280;31897;52.420;13.498;2023-07-31T13:15:06;100300;;;20.71702;29.00814
46174;BME280;31897;52.420;13.498;2023-07-31T13:18:07;100300;;;20.54546;29.16409
46174;BME280;31897;52.420;13.498;2023-07-31T13:21:07;100300;;;20.49119;29.40078
46174;BME280;31897;52.420;13.498;2023-07-31T13:24:08;100300;;;20.52705;29.29726
46174;BME280;31897;52.420;13.498;2023-07-31T13:27:09;100300;;;20.44757;29.26951
46174;BME280;31897;52.420;13.498;2023-07-31T13:30:10;100300;;;20.2912;29.58142
46174;BME280;31897;52.420;13.498;2023-07-31T13:33:11;100300;;;20.27408;29.81081
46174;BME280;31897;52.420;13.498;2023-07-31T13:36:12;100300;;;20.25922;29.84737
46174;BME280;31897;52.420;13.498;2023-07-31T13:39:13;100300;;;20.28636;29.75624
46174;BME280;31897;52.420;13.498;2023-07-31T13:42:14;100300;;;20.60685;29.43351
46174;BME280;31897;52.420;13.498;2023-07-31T13:45:15;100300;;;21.12765;29.15243
46174;BME280;31897;52.420;13.498;2023-07-31T13:48:16;100300;;;21.50436;28.91135
46174;BME280;31897;52.420;13.498;2023-07-31T13:51:16;100300;;;21.33765;28.66291
46174;BME280;31897;52.420;13.498;2023-07-31T13:54:17;100300;;;21.27691;28.72521
46174;BME280;31897;52.420;13.498;2023-07-31T13:57:18;100300;;;21.31762;28.76016
46174;BME280;31897;52.420;13.498;2023-07-31T14:00:19;100300;;;21.15899;28.72892
46174;BME280;31897;52.420;13.498;2023-07-31T14:03:20;100300;;;21.11473;28.85104
46174;BME280;31897;52.420;13.498;2023-07-31T14:06:20;100300;;;21.01619;28.86014
46174;BME280;31897;52.420;13.498;2023-07-31T14:09:21;100300;;;21.1228;28.887
46174;BME280;31897;52.420;13.498;2023-07-31T14:12:22;100300;;;20.92185;28.91134
46174;BME280;31897;52.420;13.498;2023-07-31T14:15:23;100300;;;21.01005;28.96292
46174;BME280;31897;52.420;13.498;2023-07-31T14:18:24;100300;;;21.13605;28.87452
46174;BME280;31897;52.420;13.498;2023-07-31T14:21:25;100300;;;21.15123;28.93441
46174;BME280;31897;52.420;13.498;2023-07-31T14:24:25;100300;;;21.11893;28.8992
46174;BME280;31897;52.420;13.498;2023-07-31T14:27:26;100300;;;21.08791;29.10536
46174;BME280;31897;52.420;13.498;2023-07-31T14:30:27;100300;;;21.06853;29.19044
46174;BME280;31897;52.420;13.498;2023-07-31T14:33:28;100300;;;20.97063;29.20548
46174;BME280;31897;52.420;13.498;2023-07-31T14:36:28;100300;;;20.93897;29.23056
46174;BME280;31897;52.420;13.498;2023-07-31T14:39:29;100200;;;20.88566;29.25632
46174;BME280;31897;52.420;13.498;2023-07-31T14:42:30;100200;;;20.94123;29.27877
46174;BME280;31897;52.420;13.498;2023-07-31T14:45:31;100200;;;21.05043;29.23323
46174;BME280;31897;52.420;13.498;2023-07-31T14:48:31;100200;;;21.08565;29.29855
46174;BME280;31897;52.420;13.498;2023-07-31T14:51:32;100200;;;21.13702;29.297
46174;BME280;31897;52.420;13.498;2023-07-31T14:54:33;100200;;;21.17223;29.28386
46174;BME280;31897;52.420;13.498;2023-07-31T14:57:34;100200;;;21.18968;29.22901
46174;BME280;31897;52.420;13.498;2023-07-31T15:00:34;100200;;;21.10956;29.14091
46174;BME280;31897;52.420;13.498;2023-07-31T15:03:35;100200;;;21.02879;29.12527